createdAt,value
2023-04-24T00:02:59.458Z,12.11
2023-04-24T00:08:03.403Z,12.11
2023-04-24T00:13:07.053Z,12.13
2023-04-24T00:18:10.722Z,12.16
2023-04-24T00:23:14.430Z,12.18
2023-04-24T00:28:18.120Z,12.22
2023-04-24T00:33:21.892Z,12.25
2023-04-24T00:38:25.859Z,12.30
2023-04-24T00:43:29.437Z,12.31
2023-04-24T00:48:33.306Z,12.31
2023-04-24T00:53:36.993Z,12.31
2023-04-24T00:58:41.412Z,12.29
2023-04-24T01:03:46.142Z,12.29
2023-04-24T01:08:50.377Z,12.26
2023-04-24T01:13:54.050Z,12.23
2023-04-24T01:18:57.857Z,12.21
2023-04-24T01:24:01.688Z,12.19
2023-04-24T01:29:05.431Z,12.17
2023-04-24T01:34:09.528Z,12.14
2023-04-24T01:39:14.109Z,12.14
2023-04-24T01:44:19.265Z,12.15
2023-04-24T01:49:23.382Z,12.16
2023-04-24T01:54:27.157Z,12.15
2023-04-24T01:59:34.946Z,12.15
2023-04-24T02:04:38.860Z,12.15
2023-04-24T02:09:42.920Z,12.14
2023-04-24T02:14:46.934Z,12.11
2023-04-24T02:19:50.876Z,12.09
2023-04-24T02:24:54.610Z,12.08
2023-04-24T02:29:58.410Z,12.04
2023-04-24T02:35:02.741Z,11.94
2023-04-24T02:40:07.248Z,11.85
2023-04-24T02:45:11.612Z,11.78
2023-04-24T02:50:15.334Z,11.74
2023-04-24T02:55:19.175Z,11.72
2023-04-24T03:00:23.177Z,11.73
2023-04-24T03:05:26.832Z,11.72
2023-04-24T03:10:30.840Z,11.72
2023-04-24T03:15:34.844Z,11.76
2023-04-24T03:20:38.844Z,11.75
2023-04-24T03:25:44.118Z,11.72
2023-04-24T03:30:48.741Z,11.67
2023-04-24T03:35:54.064Z,11.62
2023-04-24T03:40:57.922Z,11.52
2023-04-24T03:46:15.292Z,11.48
2023-04-24T03:51:24.278Z,11.50
2023-04-24T03:56:30.219Z,11.49
2023-04-24T04:01:37.962Z,11.51
2023-04-24T04:06:52.515Z,11.54
2023-04-24T04:11:56.563Z,11.53
2023-04-24T04:17:00.342Z,11.50
2023-04-24T04:22:04.226Z,11.48
2023-04-24T04:27:19.958Z,11.49
2023-04-24T04:32:36.473Z,11.52
2023-04-24T04:37:41.553Z,11.51
2023-04-24T04:43:20.487Z,11.64
2023-04-24T04:48:30.047Z,12.04
2023-04-24T04:53:36.387Z,12.45
2023-04-24T04:58:40.654Z,13.08
2023-04-24T05:03:47.414Z,13.44
2023-04-24T05:08:57.344Z,13.53
2023-04-24T05:14:10.764Z,13.69
2023-04-24T05:19:16.209Z,14.15
2023-04-24T05:24:22.723Z,14.18
2023-04-24T05:29:45.489Z,14.32
2023-04-24T05:34:51.038Z,14.33
2023-04-24T05:39:55.932Z,14.35
2023-04-24T05:45:00.774Z,14.49
2023-04-24T05:50:04.755Z,14.59
2023-04-24T05:55:09.309Z,14.55
2023-04-24T06:00:15.602Z,14.56
2023-04-24T06:05:22.431Z,14.59
2023-04-24T06:10:26.942Z,14.69
2023-04-24T06:15:34.660Z,14.84
2023-04-24T06:20:53.736Z,15.00
2023-04-24T06:25:57.748Z,15.18
2023-04-24T06:31:01.557Z,15.36
2023-04-24T06:36:05.861Z,15.46
2023-04-24T06:41:09.547Z,15.40
2023-04-24T06:46:13.571Z,15.32
2023-04-24T06:51:18.881Z,15.28
2023-04-24T06:56:22.757Z,15.21
2023-04-24T07:01:26.841Z,15.20
2023-04-24T07:06:33.131Z,15.29
2023-04-24T07:11:38.210Z,15.52
2023-04-24T07:16:42.006Z,15.69
2023-04-24T07:21:46.178Z,15.85
2023-04-24T07:26:49.953Z,16.13
2023-04-24T07:31:55.377Z,16.32
2023-04-24T07:36:59.169Z,16.53
2023-04-24T07:42:04.734Z,16.74
2023-04-24T07:47:08.441Z,17.08
2023-04-24T07:52:12.133Z,17.47
2023-04-24T07:57:15.953Z,17.71
2023-04-24T08:02:19.719Z,17.84
2023-04-24T08:07:25.798Z,17.81
2023-04-24T08:12:30.642Z,17.68
2023-04-24T08:17:38.193Z,17.49
2023-04-24T08:22:42.914Z,17.50
2023-04-24T08:27:46.737Z,17.48
2023-04-24T08:32:50.499Z,17.17
2023-04-24T08:37:55.288Z,16.96
2023-04-24T08:42:59.944Z,16.78
2023-04-24T08:48:04.175Z,16.52
2023-04-24T08:53:09.042Z,16.42
2023-04-24T08:58:13.500Z,16.72
2023-04-24T09:03:18.527Z,17.28
2023-04-24T09:08:25.859Z,17.61
2023-04-24T09:13:30.114Z,17.79
2023-04-24T09:18:35.155Z,17.79
2023-04-24T09:23:38.972Z,18.04
2023-04-24T09:28:42.677Z,18.58
2023-04-24T09:33:59.072Z,18.63
2023-04-24T09:39:17.030Z,18.70
2023-04-24T09:44:23.025Z,18.80
2023-04-24T09:49:31.420Z,19.26
2023-04-24T09:54:35.258Z,19.30
2023-04-24T09:59:48.103Z,19.19
2023-04-24T10:05:01.331Z,19.14
2023-04-24T10:10:06.434Z,19.15
2023-04-24T10:15:13.785Z,19.00
2023-04-24T10:20:17.731Z,18.89
2023-04-24T10:25:23.094Z,18.60
2023-04-24T10:30:37.845Z,18.38
2023-04-24T10:35:49.288Z,18.27
2023-04-24T10:40:53.124Z,18.21
2023-04-24T10:46:07.472Z,18.32
2023-04-24T10:51:15.555Z,18.84
2023-04-24T10:56:19.686Z,19.22
2023-04-24T11:01:28.233Z,19.06
2023-04-24T11:06:37.408Z,18.78
2023-04-24T11:11:47.438Z,18.46
2023-04-24T11:16:58.811Z,18.23
2023-04-24T11:22:05.232Z,18.02
2023-04-24T11:27:15.645Z,17.92
2023-04-24T11:32:28.768Z,18.19
2023-04-24T11:37:38.202Z,18.37
2023-04-24T11:42:46.306Z,18.57
2023-04-24T11:47:50.332Z,18.88
2023-04-24T11:52:54.934Z,19.04
2023-04-24T11:58:00.629Z,19.14
2023-04-24T12:03:13.617Z,19.06
2023-04-24T12:08:38.210Z,18.96
2023-04-24T12:13:42.476Z,18.74
2023-04-24T12:18:47.379Z,18.52
2023-04-24T12:23:52.290Z,18.20
2023-04-24T12:28:56.182Z,17.86
2023-04-24T12:34:00.024Z,17.57
2023-04-24T12:39:03.802Z,17.38
2023-04-24T12:44:12.028Z,17.13
2023-04-24T12:49:15.739Z,16.91
2023-04-24T12:54:19.474Z,16.88
2023-04-24T12:59:23.436Z,16.82
2023-04-24T13:04:27.205Z,16.70
2023-04-24T13:09:31.859Z,16.54
2023-04-24T13:14:36.094Z,16.11
2023-04-24T13:19:41.875Z,15.29
2023-04-24T13:24:51.714Z,14.59
2023-04-24T13:29:55.457Z,14.03
2023-04-24T13:34:59.369Z,13.73
2023-04-24T13:40:03.306Z,13.48
2023-04-24T13:45:23.423Z,13.33
2023-04-24T13:50:28.423Z,13.23
2023-04-24T13:55:32.512Z,13.23
2023-04-24T14:00:36.659Z,13.30
2023-04-24T14:05:40.515Z,13.38
2023-04-24T14:10:44.334Z,13.38
2023-04-24T14:15:48.384Z,13.35
2023-04-24T14:20:52.164Z,13.30
2023-04-24T14:25:56.078Z,13.29
2023-04-24T14:31:00.065Z,13.30
2023-04-24T14:36:06.921Z,13.35
2023-04-24T14:41:14.320Z,13.39
2023-04-24T14:46:21.806Z,13.45
2023-04-24T14:51:26.947Z,13.47
2023-04-24T14:56:35.202Z,13.49
2023-04-24T15:01:39.244Z,13.54
2023-04-24T15:06:43.830Z,13.58
2023-04-24T15:11:48.346Z,13.58
2023-04-24T15:16:52.716Z,13.50
2023-04-24T15:21:56.576Z,13.38
2023-04-24T15:27:02.885Z,13.22
2023-04-24T15:32:08.877Z,13.05
2023-04-24T15:37:14.026Z,12.93
2023-04-24T15:42:18.008Z,12.79
2023-04-24T15:47:22.034Z,12.67
2023-04-24T15:52:26.139Z,12.57
2023-04-24T15:57:29.878Z,12.44
2023-04-24T16:02:34.924Z,12.35
2023-04-24T16:07:41.385Z,12.30
2023-04-24T16:12:45.329Z,12.27
2023-04-24T16:17:50.573Z,12.25
2023-04-24T16:22:54.452Z,12.23
2023-04-24T16:27:58.881Z,12.22
2023-04-24T16:33:07.592Z,12.20
2023-04-24T16:38:12.434Z,12.16
2023-04-24T16:43:16.323Z,12.13
2023-04-24T16:48:20.264Z,12.08
2023-04-24T16:53:24.028Z,12.04
2023-04-24T16:58:27.913Z,11.98
2023-04-24T17:03:32.841Z,11.93
2023-04-24T17:08:37.559Z,11.90
2023-04-24T17:13:41.977Z,11.84
2023-04-24T17:18:47.627Z,11.81
2023-04-24T17:23:53.675Z,11.79
2023-04-24T17:28:58.277Z,11.75
2023-04-24T17:34:05.891Z,11.71
2023-04-24T17:39:11.477Z,11.65
2023-04-24T17:44:16.637Z,11.62
2023-04-24T17:49:22.538Z,11.59
2023-04-24T17:54:30.140Z,11.56
2023-04-24T17:59:35.706Z,11.55
2023-04-24T18:04:41.518Z,11.51
2023-04-24T18:09:47.150Z,11.47
2023-04-24T18:14:59.794Z,11.40
2023-04-24T18:20:13.542Z,11.33
2023-04-24T18:25:22.469Z,11.22
2023-04-24T18:30:28.637Z,11.13
2023-04-24T18:35:33.790Z,11.08
2023-04-24T18:40:38.790Z,11.07
2023-04-24T18:45:44.348Z,11.07
2023-04-24T18:50:51.906Z,11.08
2023-04-24T18:55:58.289Z,11.10
2023-04-24T19:01:02.647Z,11.07
2023-04-24T19:06:20.223Z,11.09
2023-04-24T19:11:26.922Z,11.12
2023-04-24T19:16:32.258Z,11.14
2023-04-24T19:21:37.580Z,11.12
2023-04-24T19:26:42.694Z,11.12
2023-04-24T19:31:49.266Z,11.09
2023-04-24T19:36:57.119Z,11.03
2023-04-24T19:42:05.862Z,10.95
2023-04-24T19:47:14.380Z,10.93
2023-04-24T19:52:18.528Z,10.90
2023-04-24T19:57:23.209Z,10.82
2023-04-24T20:02:28.252Z,10.74
2023-04-24T20:07:32.484Z,10.63
2023-04-24T20:12:38.332Z,10.56
2023-04-24T20:17:42.274Z,10.51
2023-04-24T20:22:46.497Z,10.45
2023-04-24T20:27:51.049Z,10.40
2023-04-24T20:32:55.041Z,10.34
2023-04-24T20:37:59.888Z,10.30
2023-04-24T20:43:04.964Z,10.28
2023-04-24T20:48:10.502Z,10.25
2023-04-24T20:53:14.298Z,10.26
2023-04-24T20:58:22.540Z,10.25
2023-04-24T21:03:27.708Z,10.24
2023-04-24T21:08:31.605Z,10.20
2023-04-24T21:13:35.433Z,10.18
2023-04-24T21:18:41.489Z,10.14
2023-04-24T21:23:46.532Z,10.12
2023-04-24T21:28:52.069Z,10.15
2023-04-24T21:33:56.517Z,10.22
2023-04-24T21:39:00.294Z,10.29
2023-04-24T21:44:04.298Z,10.39
2023-04-24T21:49:08.122Z,10.41
2023-04-24T21:54:12.071Z,10.38
2023-04-24T21:59:16.014Z,10.34
2023-04-24T22:04:20.449Z,10.28
2023-04-24T22:09:24.990Z,10.20
2023-04-24T22:14:28.745Z,10.15
2023-04-24T22:19:32.627Z,10.08
2023-04-24T22:24:36.998Z,10.07
2023-04-24T22:29:41.183Z,10.06
2023-04-24T22:34:45.173Z,9.98
2023-04-24T22:39:49.934Z,9.86
2023-04-24T22:44:54.428Z,9.70
2023-04-24T22:49:58.936Z,9.55
2023-04-24T22:55:03.290Z,9.43
2023-04-24T23:00:11.551Z,9.27
2023-04-24T23:05:15.403Z,9.06
2023-04-24T23:10:19.241Z,8.98
2023-04-24T23:15:23.075Z,8.95
2023-04-24T23:20:27.310Z,8.88
2023-04-24T23:25:33.089Z,8.82
2023-04-24T23:30:37.101Z,8.77
2023-04-24T23:35:42.375Z,8.66
2023-04-24T23:40:46.277Z,8.54
2023-04-24T23:45:50.044Z,8.43
2023-04-24T23:50:53.896Z,8.24
2023-04-24T23:55:57.668Z,8.12
